Terminal Aerodrome Forecast
Issued by NWS Wakefield, VA

Home | Current Version | Previous Version | Text Only | Print | Product List | Glossary On
Versions: 1 2 3 4 5 6 7 8 9 10 11 12 13 14 15
267
FTUS41 KAKQ 241736
TAFORF
TAF
KORF 241736Z 2418/2518 30007KT P6SM SCT150
     FM242200 23007KT P6SM BKN060
     FM250800 31007KT P6SM SCT200=

USA.gov is the U.S. government's official web portal to all federal, state and local government web resources and services.